createdAt,value
2022-11-02T00:01:43.011Z,13.10
2022-11-02T00:04:28.664Z,13.10
2022-11-02T00:07:14.071Z,13.10
2022-11-02T00:09:59.746Z,13.10
2022-11-02T00:12:45.810Z,13.20
2022-11-02T00:15:34.599Z,13.30
2022-11-02T00:18:20.139Z,13.40
2022-11-02T00:21:05.836Z,13.40
2022-11-02T00:23:57.369Z,13.50
2022-11-02T00:26:42.757Z,13.60
2022-11-02T00:29:33.452Z,13.60
2022-11-02T00:32:20.220Z,13.50
2022-11-02T00:35:06.359Z,13.30
2022-11-02T00:37:51.772Z,13.00
2022-11-02T00:40:37.316Z,12.70
2022-11-02T00:43:22.676Z,12.40
2022-11-02T00:46:08.344Z,12.20
2022-11-02T00:48:53.931Z,12.00
2022-11-02T00:51:39.863Z,12.00
2022-11-02T00:54:28.659Z,11.90
2022-11-02T00:57:14.698Z,11.90
2022-11-02T01:00:00.980Z,11.90
2022-11-02T01:02:46.463Z,11.80
2022-11-02T01:05:32.170Z,11.90
2022-11-02T01:08:17.734Z,11.90
2022-11-02T01:11:17.928Z,11.90
2022-11-02T01:14:03.324Z,11.90
2022-11-02T01:16:49.159Z,11.90
2022-11-02T01:19:35.358Z,11.90
2022-11-02T01:22:23.542Z,11.90
2022-11-02T01:25:09.328Z,11.90
2022-11-02T01:27:54.832Z,11.90
2022-11-02T01:30:40.514Z,11.80
2022-11-02T01:33:29.155Z,11.80
2022-11-02T01:36:16.649Z,11.80
2022-11-02T01:39:02.254Z,11.80
2022-11-02T01:41:52.714Z,11.70
2022-11-02T01:44:40.090Z,11.70
2022-11-02T01:47:39.225Z,11.80
2022-11-02T01:50:27.777Z,11.80
2022-11-02T01:53:16.275Z,11.90
2022-11-02T01:56:05.718Z,11.90
2022-11-02T01:59:04.115Z,12.00
2022-11-02T02:01:49.892Z,12.20
2022-11-02T02:04:39.054Z,12.10
2022-11-02T02:07:26.247Z,12.10
2022-11-02T02:10:12.007Z,12.20
2022-11-02T02:12:57.737Z,12.30
2022-11-02T02:15:55.448Z,12.40
2022-11-02T02:19:30.771Z,12.60
2022-11-02T02:22:48.331Z,12.70
2022-11-02T02:26:03.183Z,12.70
2022-11-02T02:28:59.842Z,12.80
2022-11-02T02:31:56.386Z,12.90
2022-11-02T02:35:06.139Z,12.90
2022-11-02T02:38:03.439Z,13.00
2022-11-02T02:41:03.882Z,13.10
2022-11-02T02:43:51.823Z,13.20
2022-11-02T02:46:44.079Z,13.30
2022-11-02T02:49:40.667Z,13.30
2022-11-02T02:52:32.854Z,13.30
2022-11-02T02:55:24.352Z,13.20
2022-11-02T02:58:16.534Z,13.20
2022-11-02T03:01:05.981Z,13.00
2022-11-02T03:03:55.641Z,13.00
2022-11-02T03:06:50.055Z,12.90
2022-11-02T03:09:47.357Z,12.90
2022-11-02T03:12:47.815Z,12.90
2022-11-02T03:15:45.006Z,12.90
2022-11-02T03:18:42.594Z,12.90
2022-11-02T03:21:41.866Z,12.90
2022-11-02T03:24:37.657Z,12.70
2022-11-02T03:27:54.659Z,12.80
2022-11-02T03:30:45.873Z,12.80
2022-11-02T03:33:38.368Z,12.90
2022-11-02T03:36:35.829Z,12.90
2022-11-02T03:39:30.117Z,12.90
2022-11-02T03:42:23.642Z,13.00
2022-11-02T03:45:15.978Z,13.10
2022-11-02T03:48:16.924Z,13.20
2022-11-02T03:51:06.964Z,13.10
2022-11-02T03:54:10.923Z,13.00
2022-11-02T03:59:49.626Z,12.80
2022-11-02T04:02:37.840Z,12.90
2022-11-02T04:05:30.958Z,12.80
2022-11-02T04:08:39.550Z,12.80
2022-11-02T04:11:46.865Z,12.80
2022-11-02T04:14:39.598Z,12.80
2022-11-02T04:17:47.810Z,12.90
2022-11-02T04:20:36.271Z,12.90
2022-11-02T04:23:40.659Z,13.00
2022-11-02T04:26:26.094Z,13.00
2022-11-02T04:29:11.634Z,13.00
2022-11-02T04:31:58.425Z,13.00
2022-11-02T04:34:43.859Z,13.00
2022-11-02T04:37:47.960Z,12.80
2022-11-02T04:40:33.896Z,12.80
2022-11-02T04:43:21.386Z,12.70
2022-11-02T04:46:06.960Z,12.60
2022-11-02T04:48:53.236Z,12.60
2022-11-02T04:51:45.733Z,12.60
2022-11-02T04:54:33.460Z,12.50
2022-11-02T04:57:21.079Z,12.40
2022-11-02T05:00:08.886Z,12.50
2022-11-02T05:02:54.648Z,12.50
2022-11-02T05:05:43.689Z,12.40
2022-11-02T05:08:31.867Z,12.40
2022-11-02T05:11:17.790Z,12.40
2022-11-02T05:14:03.633Z,12.40
2022-11-02T05:16:48.977Z,12.40
2022-11-02T05:19:37.360Z,12.40
2022-11-02T05:22:24.011Z,12.40
2022-11-02T05:25:10.215Z,12.40
2022-11-02T05:27:57.519Z,12.40
2022-11-02T05:30:43.094Z,12.50
2022-11-02T05:33:31.119Z,12.50
2022-11-02T05:36:21.138Z,12.50
2022-11-02T05:39:11.741Z,12.50
2022-11-02T05:41:57.460Z,12.50
2022-11-02T05:44:42.924Z,12.50
2022-11-02T05:47:28.582Z,12.50
2022-11-02T05:50:13.798Z,12.40
2022-11-02T05:52:59.671Z,12.40
2022-11-02T05:55:45.079Z,12.40
2022-11-02T05:58:30.947Z,12.50
2022-11-02T06:01:17.255Z,12.40
2022-11-02T06:04:02.327Z,12.40
2022-11-02T06:06:47.797Z,12.40
2022-11-02T06:09:33.338Z,12.40
2022-11-02T06:12:18.758Z,12.40
2022-11-02T06:15:05.144Z,12.40
2022-11-02T06:17:51.792Z,12.30
2022-11-02T06:20:37.208Z,12.30
2022-11-02T06:23:22.879Z,12.30
2022-11-02T06:26:09.419Z,12.40
2022-11-02T06:28:57.767Z,12.50
2022-11-02T06:31:45.958Z,12.50
2022-11-02T06:34:31.287Z,12.40
2022-11-02T06:37:19.235Z,12.40
2022-11-02T06:40:05.048Z,12.40
2022-11-02T06:43:15.301Z,12.40
2022-11-02T06:46:02.780Z,12.40
2022-11-02T06:48:48.443Z,12.40
2022-11-02T06:51:35.241Z,12.40
2022-11-02T06:54:20.729Z,12.40
2022-11-02T06:57:06.089Z,12.40
2022-11-02T06:59:54.112Z,12.40
2022-11-02T07:02:40.367Z,12.40
2022-11-02T07:05:26.190Z,12.40
2022-11-02T07:08:11.537Z,12.40
2022-11-02T07:10:57.018Z,12.50
2022-11-02T07:13:42.804Z,12.50
2022-11-02T07:16:37.463Z,12.50
2022-11-02T07:19:22.909Z,12.50
2022-11-02T07:22:08.407Z,12.50
2022-11-02T07:24:53.981Z,12.50
2022-11-02T07:27:42.213Z,12.50
2022-11-02T07:30:29.226Z,12.50
2022-11-02T07:33:14.485Z,12.50
2022-11-02T07:36:03.787Z,12.50
2022-11-02T07:38:49.786Z,12.50
2022-11-02T07:41:35.988Z,12.60
2022-11-02T07:44:21.276Z,12.60
2022-11-02T07:47:12.838Z,12.60
2022-11-02T07:49:59.765Z,12.80
2022-11-02T07:52:56.787Z,12.90
2022-11-02T07:55:47.926Z,12.90
2022-11-02T07:58:33.803Z,12.90
2022-11-02T08:01:19.585Z,13.00
2022-11-02T08:04:06.179Z,13.10
2022-11-02T08:06:53.240Z,13.10
2022-11-02T08:09:38.933Z,13.10
2022-11-02T08:12:24.889Z,13.10
2022-11-02T08:15:10.446Z,13.20
2022-11-02T08:18:17.555Z,13.20
2022-11-02T08:21:04.244Z,13.20
2022-11-02T08:23:51.769Z,13.20
2022-11-02T08:26:42.399Z,13.20
2022-11-02T08:29:30.515Z,13.20
2022-11-02T08:32:16.014Z,13.30
2022-11-02T08:35:01.146Z,13.30
2022-11-02T08:37:53.806Z,13.40
2022-11-02T08:40:41.087Z,13.40
2022-11-02T08:43:26.595Z,13.50
2022-11-02T08:46:16.509Z,13.50
2022-11-02T08:49:02.532Z,13.50
2022-11-02T08:51:48.189Z,13.60
2022-11-02T08:54:34.296Z,13.60
2022-11-02T08:57:19.958Z,13.60
2022-11-02T09:00:06.373Z,13.70
2022-11-02T09:02:59.570Z,13.70
2022-11-02T09:05:46.579Z,13.70
2022-11-02T09:08:33.345Z,13.80
2022-11-02T09:11:18.836Z,13.80
2022-11-02T09:14:04.157Z,13.90
2022-11-02T09:16:49.586Z,13.90
2022-11-02T09:19:35.021Z,13.90
2022-11-02T09:22:20.458Z,14.00
2022-11-02T09:25:06.674Z,14.10
2022-11-02T09:27:56.417Z,14.10
2022-11-02T09:30:41.856Z,14.20
2022-11-02T09:33:36.422Z,14.30
2022-11-02T09:36:22.311Z,14.50
2022-11-02T09:39:08.274Z,14.70
2022-11-02T09:42:11.555Z,14.70
2022-11-02T09:45:04.590Z,14.70
2022-11-02T09:48:27.868Z,14.80
2022-11-02T09:51:36.875Z,14.90
2022-11-02T09:54:34.157Z,15.10
2022-11-02T09:57:30.691Z,15.20
2022-11-02T10:00:21.109Z,15.30
2022-11-02T10:03:25.095Z,15.20
2022-11-02T10:06:18.616Z,15.20
2022-11-02T10:09:35.748Z,15.30
2022-11-02T10:12:48.598Z,15.30
2022-11-02T10:15:39.331Z,15.30
2022-11-02T10:18:29.959Z,15.40
2022-11-02T10:21:26.067Z,15.40
2022-11-02T10:24:18.509Z,15.40
2022-11-02T10:27:45.230Z,15.50
2022-11-02T10:30:32.079Z,15.70
2022-11-02T10:33:26.248Z,15.90
2022-11-02T10:36:37.302Z,16.10
2022-11-02T10:39:29.747Z,16.40
2022-11-02T10:42:46.725Z,16.50
2022-11-02T10:46:07.399Z,16.50
2022-11-02T10:49:02.188Z,16.50
2022-11-02T10:51:47.791Z,16.60
2022-11-02T10:54:34.701Z,16.70
2022-11-02T10:57:24.039Z,16.80
2022-11-02T11:00:23.160Z,16.80
2022-11-02T11:03:12.095Z,16.90
2022-11-02T11:06:03.616Z,17.00
2022-11-02T11:08:51.949Z,17.00
2022-11-02T11:11:38.902Z,17.10
2022-11-02T11:20:43.068Z,18.80
2022-11-02T11:23:32.027Z,19.40
2022-11-02T11:26:30.999Z,19.50
2022-11-02T11:29:23.182Z,19.80
2022-11-02T11:32:29.857Z,20.10
2022-11-02T11:35:19.024Z,20.40
2022-11-02T11:38:06.938Z,20.30
2022-11-02T11:40:59.649Z,20.70
2022-11-02T11:43:46.585Z,21.00
2022-11-02T11:46:51.364Z,21.30
2022-11-02T11:53:22.411Z,21.80
2022-11-02T11:56:28.745Z,22.30
2022-11-02T11:59:43.993Z,21.80
2022-11-02T12:02:32.150Z,22.30
2022-11-02T12:05:20.757Z,22.00
2022-11-02T12:08:31.259Z,21.50
2022-11-02T12:11:38.748Z,21.90
2022-11-02T12:14:52.680Z,22.30
2022-11-02T12:17:50.424Z,23.10
2022-11-02T12:21:05.151Z,24.00
2022-11-02T12:24:16.002Z,24.40
2022-11-02T12:27:23.068Z,24.00
2022-11-02T12:30:19.835Z,22.70
2022-11-02T12:33:34.687Z,22.60
2022-11-02T12:36:56.783Z,22.90
2022-11-02T12:40:04.787Z,23.60
2022-11-02T12:43:04.924Z,23.70
2022-11-02T12:46:13.583Z,23.20
2022-11-02T12:49:36.758Z,23.30
2022-11-02T12:52:44.209Z,22.20
2022-11-02T12:55:38.751Z,21.40
2022-11-02T12:58:28.832Z,22.00
2022-11-02T13:01:34.166Z,23.00
2022-11-02T13:04:30.305Z,23.40
2022-11-02T13:07:27.019Z,24.00
2022-11-02T13:10:18.713Z,24.40
2022-11-02T13:13:05.168Z,23.50
2022-11-02T13:15:54.743Z,23.60
2022-11-02T13:18:53.278Z,22.80
2022-11-02T13:21:44.451Z,22.30
2022-11-02T13:24:45.683Z,21.70
2022-11-02T13:27:39.210Z,21.10
2022-11-02T13:30:25.959Z,20.60
2022-11-02T13:33:44.783Z,21.20
2022-11-02T13:36:30.858Z,20.80
2022-11-02T13:39:21.806Z,20.50
2022-11-02T13:42:38.203Z,21.00
2022-11-02T13:45:42.728Z,20.60
2022-11-02T13:48:55.870Z,20.80
2022-11-02T13:51:48.922Z,21.80
2022-11-02T13:54:43.960Z,22.30
2022-11-02T13:57:35.249Z,22.20
2022-11-02T14:00:23.520Z,21.60
2022-11-02T14:03:16.847Z,21.70
2022-11-02T14:06:11.626Z,21.40
2022-11-02T14:09:00.491Z,20.70
2022-11-02T14:12:09.847Z,20.80
2022-11-02T14:15:13.779Z,20.80
2022-11-02T14:18:11.950Z,21.20
2022-11-02T14:20:57.559Z,22.30
2022-11-02T14:23:43.099Z,22.80
2022-11-02T14:26:53.534Z,22.50
2022-11-02T14:29:45.098Z,22.90
2022-11-02T14:32:40.906Z,23.60
2022-11-02T14:35:44.073Z,23.00
2022-11-02T14:38:38.753Z,22.90
2022-11-02T14:41:48.521Z,23.20
2022-11-02T14:44:33.715Z,23.20
2022-11-02T14:47:19.887Z,23.20
2022-11-02T14:50:08.232Z,23.00
2022-11-02T14:53:05.976Z,22.30
2022-11-02T14:56:00.982Z,21.60
2022-11-02T14:58:56.523Z,21.00
2022-11-02T15:02:06.556Z,20.20
2022-11-02T15:04:56.474Z,19.60
2022-11-02T15:08:14.292Z,19.00
2022-11-02T15:10:59.889Z,18.40
2022-11-02T15:13:48.704Z,17.80
2022-11-02T15:16:41.434Z,17.50
2022-11-02T15:19:51.881Z,17.10
2022-11-02T15:23:28.503Z,16.70
2022-11-02T15:26:43.253Z,16.40
2022-11-02T15:29:36.565Z,16.10
2022-11-02T15:32:26.322Z,15.90
2022-11-02T15:35:24.170Z,15.70
2022-11-02T15:38:18.576Z,15.60
2022-11-02T15:41:06.343Z,15.50
2022-11-02T15:44:22.672Z,15.30
2022-11-02T15:47:26.429Z,15.10
2022-11-02T15:50:20.836Z,15.00
2022-11-02T15:53:35.407Z,15.00
2022-11-02T15:57:04.212Z,14.80
2022-11-02T16:00:06.876Z,14.80
2022-11-02T16:02:54.131Z,14.60
2022-11-02T16:05:47.739Z,14.50
2022-11-02T16:08:36.115Z,14.40
2022-11-02T16:11:21.649Z,14.30
2022-11-02T16:14:18.146Z,14.20
2022-11-02T16:17:03.909Z,14.10
2022-11-02T16:19:50.018Z,14.00
2022-11-02T16:22:36.769Z,13.90
2022-11-02T16:25:35.129Z,13.80
2022-11-02T16:28:25.711Z,13.80
2022-11-02T16:31:18.967Z,13.70
2022-11-02T16:34:21.712Z,13.70
2022-11-02T16:37:10.687Z,13.60
2022-11-02T16:39:56.094Z,13.60
2022-11-02T16:42:48.306Z,13.60
2022-11-02T16:45:40.265Z,13.50
2022-11-02T16:48:32.972Z,13.50
2022-11-02T16:51:19.277Z,13.50
2022-11-02T16:54:18.117Z,13.40
2022-11-02T16:57:15.852Z,13.40
2022-11-02T17:00:18.306Z,13.40
2022-11-02T17:03:15.242Z,13.40
2022-11-02T17:06:05.488Z,13.40
2022-11-02T17:08:54.032Z,13.40
2022-11-02T17:11:43.373Z,13.40
2022-11-02T17:14:31.814Z,13.40
2022-11-02T17:17:23.920Z,13.40
2022-11-02T17:20:14.858Z,13.40
2022-11-02T17:23:30.886Z,13.40
2022-11-02T17:26:24.867Z,13.30
2022-11-02T17:29:19.512Z,13.30
2022-11-02T17:32:07.382Z,13.30
2022-11-02T17:34:54.500Z,13.30
2022-11-02T17:37:39.745Z,13.30
2022-11-02T17:40:25.390Z,13.30
2022-11-02T17:43:11.313Z,13.30
2022-11-02T17:45:58.395Z,13.30
2022-11-02T17:48:43.968Z,13.30
2022-11-02T17:51:29.428Z,13.30
2022-11-02T17:54:15.052Z,13.30
2022-11-02T17:57:02.164Z,13.20
2022-11-02T17:59:47.700Z,13.20
2022-11-02T18:02:33.473Z,13.30
2022-11-02T18:05:28.512Z,13.30
2022-11-02T18:08:20.938Z,13.40
2022-11-02T18:11:08.719Z,13.40
2022-11-02T18:13:54.009Z,13.30
2022-11-02T18:16:40.196Z,13.30
2022-11-02T18:19:26.140Z,13.40
2022-11-02T18:22:13.112Z,13.40
2022-11-02T18:24:58.607Z,13.40
2022-11-02T18:27:44.941Z,13.40
2022-11-02T18:30:32.267Z,13.40
2022-11-02T18:33:17.630Z,13.40
2022-11-02T18:36:08.537Z,13.40
2022-11-02T18:38:56.478Z,13.40
2022-11-02T18:41:42.503Z,13.40
2022-11-02T18:44:27.650Z,13.40
2022-11-02T18:47:13.387Z,13.40
2022-11-02T18:50:00.239Z,13.40
2022-11-02T18:52:49.107Z,13.40
2022-11-02T18:55:39.559Z,13.40
2022-11-02T18:58:27.854Z,13.30
2022-11-02T19:01:13.876Z,13.30
2022-11-02T19:04:00.466Z,13.20
2022-11-02T19:07:04.868Z,13.20
2022-11-02T19:09:50.351Z,13.20
2022-11-02T19:12:36.284Z,13.20
2022-11-02T19:15:21.577Z,13.10
2022-11-02T19:18:07.955Z,13.10
2022-11-02T19:20:56.653Z,13.10
2022-11-02T19:23:47.187Z,13.10
2022-11-02T19:26:33.880Z,13.10
2022-11-02T19:29:20.006Z,13.10
2022-11-02T19:32:06.164Z,13.20
2022-11-02T19:34:54.248Z,13.20
2022-11-02T19:37:39.675Z,13.20
2022-11-02T19:40:29.314Z,13.20
2022-11-02T19:43:14.767Z,13.10
2022-11-02T19:46:06.349Z,13.10
2022-11-02T19:48:53.028Z,13.10
2022-11-02T19:51:39.129Z,13.10
2022-11-02T19:54:24.665Z,13.10
2022-11-02T19:57:09.987Z,13.10
2022-11-02T19:59:55.619Z,13.10
2022-11-02T20:02:43.634Z,13.10
2022-11-02T20:05:32.891Z,13.10
2022-11-02T20:08:18.687Z,13.10
2022-11-02T20:11:08.873Z,13.00
2022-11-02T20:13:55.885Z,13.00
2022-11-02T20:16:41.616Z,13.00
2022-11-02T20:19:27.350Z,13.00
2022-11-02T20:22:15.886Z,13.00
2022-11-02T20:25:01.498Z,12.90
2022-11-02T20:27:47.014Z,12.90
2022-11-02T20:30:32.723Z,12.90
2022-11-02T20:33:18.121Z,12.90
2022-11-02T20:36:04.507Z,12.90
2022-11-02T20:38:52.695Z,12.90
2022-11-02T20:41:38.278Z,12.90
2022-11-02T20:44:26.504Z,12.90
2022-11-02T20:47:12.318Z,12.80
2022-11-02T20:49:57.548Z,12.80
2022-11-02T20:52:44.986Z,12.80
2022-11-02T20:55:30.763Z,12.80
2022-11-02T20:58:16.255Z,12.80
2022-11-02T21:01:01.568Z,12.80
2022-11-02T21:03:46.886Z,12.80
2022-11-02T21:06:32.418Z,12.80
2022-11-02T21:09:18.761Z,12.80
2022-11-02T21:12:26.182Z,12.80
2022-11-02T21:15:11.430Z,12.80
2022-11-02T21:17:56.949Z,12.80
2022-11-02T21:20:43.137Z,12.80
2022-11-02T21:23:28.519Z,12.70
2022-11-02T21:26:17.180Z,12.70
2022-11-02T21:29:02.778Z,12.70
2022-11-02T21:31:48.840Z,12.70
2022-11-02T21:34:34.388Z,12.70
2022-11-02T21:37:19.765Z,12.70
2022-11-02T21:40:11.779Z,12.60
2022-11-02T21:42:57.125Z,12.60
2022-11-02T21:45:53.534Z,12.60
2022-11-02T21:48:39.338Z,12.60
2022-11-02T21:51:25.105Z,12.50
2022-11-02T21:54:10.721Z,12.50
2022-11-02T21:56:56.354Z,12.50
2022-11-02T21:59:41.682Z,12.50
2022-11-02T22:02:27.095Z,12.50
2022-11-02T22:05:32.698Z,12.50
2022-11-02T22:08:36.703Z,12.50
2022-11-02T22:11:27.059Z,12.50
2022-11-02T22:14:12.778Z,12.50
2022-11-02T22:17:01.514Z,12.50
2022-11-02T22:19:48.130Z,12.50
2022-11-02T22:22:33.587Z,12.50
2022-11-02T22:25:19.026Z,12.50
2022-11-02T22:28:04.854Z,12.40
2022-11-02T22:30:52.961Z,12.40
2022-11-02T22:33:41.551Z,12.50
2022-11-02T22:36:29.218Z,12.50
2022-11-02T22:39:14.659Z,12.50
2022-11-02T22:42:03.088Z,12.40
2022-11-02T22:44:51.312Z,12.40
2022-11-02T22:47:36.861Z,12.40
2022-11-02T22:50:25.114Z,12.40
2022-11-02T22:53:13.313Z,12.40
2022-11-02T22:56:07.836Z,12.40
2022-11-02T22:58:53.486Z,12.40
2022-11-02T23:01:39.639Z,12.40
2022-11-02T23:04:25.230Z,12.40
2022-11-02T23:07:10.950Z,12.40
2022-11-02T23:09:56.271Z,12.40
2022-11-02T23:12:41.872Z,12.40
2022-11-02T23:15:27.309Z,12.40
2022-11-02T23:18:13.175Z,12.40
2022-11-02T23:21:01.548Z,12.40
2022-11-02T23:24:05.487Z,12.40
2022-11-02T23:26:51.278Z,12.40
2022-11-02T23:29:55.336Z,12.50
2022-11-02T23:32:40.679Z,12.50
2022-11-02T23:35:44.909Z,12.50
2022-11-02T23:38:50.984Z,12.50
2022-11-02T23:41:41.604Z,12.50
2022-11-02T23:44:30.983Z,12.50
2022-11-02T23:47:16.771Z,12.50
2022-11-02T23:50:02.153Z,12.50
2022-11-02T23:53:07.236Z,12.60
2022-11-02T23:56:11.191Z,12.60
2022-11-02T23:59:08.587Z,12.60
